Home Team Position History
You can show your support by sponsoring this page for $50.  
Your ad/message will appear in this space for one year.  
Thank you for your support!       Team History Index Chicago White Sox
         
          Second Base
             
Pos St All- Other 2nd Base Fielding Statistics Pos St Batting Statistics as Second Baseman Win Shares Pos St
Year Rank Rank Name HOF MVP Star Rookie GG SS Team Stdg Bats Age Pos Games PO Assts Err DP F Pct. Year Rank Rank Name At Bats Hits 2B 3B HR Runs RBI BB IBB SO HP SH SF SB CS GDP BA OBA SA OPS RC B WS F WS T WS BWS/G FWS/G TWS/G Adj WSQ Year Rank Rank Name
1901 3 3 Sam Mertes     CHI 1 R 28   132 337 396 47 54 .940   1901 3 3 Sam Mertes 525 145 15 16 5 91 94 50 6 19 44 .276 .346 .394 .740 98   14.7 5.3 20.0 .111 .040 .152 19.21 1901 3 3 Sam Mertes
         
1902 6 6 Tom Daly     CHI 4 B 36   137 312 370 31 70 .957   1902 6 6 Tom Daly 489 110 22 3 1 57 54 55 0 15 19 .225 .303 .288 .591 57   6.0 5.0 11.0 .044 .036 .080 8.84 1902 6 6 Tom Daly
         
1903 5 5 George Magoon     CHI 7 R 28 NL-2B   94 198 253 31 28 .936   1903 5 5 George Magoon 334 76 11 3 0 32 25 30 6 7 4 .228 .303 .278 .581 32   3.5 2.3 5.8 .037 .024 .062 3.90 1903 5 5 George Magoon
1903 9 Tom Daly     CHI 7 B 37 NL-2B   43 96 103 11 12 .948   1903 9 Tom Daly 150 31 11 0 0 20 19 20 1 5 6 .207 .304 .280 .584 16   2.2 1.1 3.3 .051 .026 .077 2.47 1903 9 Tom Daly
         
1904 6 6 Gus Dundon   R   CHI 3 R 29   103 186 282 13 25 .973   1904 6 6 Gus Dundon 356 81 9 3 0 38 34 29 4 8 18 .228 .293 .270 .563 37   7.1 2.7 9.8 .069 .026 .095 7.94 1904 6 6 Gus Dundon
1904 8 Nixey Callahan     CHI 3 R 30 LF   28 49 70 10 5 .922   1904 8 Nixey Callahan 102 27 5 0 0 14 11 8 0 7 6 .265 .318 .314 .632 13   3.0 0.8 3.8 .107 .029 .136 3.68 1904 8 Nixey Callahan
1904 12 Frank Isbell     CHI 3 L 28 1B   27 53 80 11 6 .924   1904 12 Frank Isbell 91 19 3 1 0 8 10 5 1 5 6 .209 .258 .264 .522 8   1.0 0.7 1.7 .037 .026 .063 1.12 1904 12 Frank Isbell
         
1905 10 8 Gus Dundon     CHI 2 R 30   104 218 321 12 23 .978   1905 10 8 Gus Dundon 357 69 7 3 0 29 22 23 4 15 14 .193 .250 .230 .480 25   1.3 4.9 6.2 .013 .047 .060 4.15 1905 10 8 Gus Dundon
1905 7 Frank Isbell     CHI 2 L 29 RF   42 76 112 7 11 .964   1905 7 Frank Isbell 154 46 9 5 1 25 20 7 2 13 7 .299 .337 .442 .779 26   6.5 1.6 8.1 .155 .038 .193 9.75 1905 7 Frank Isbell
         
1906 2 2 Frank Isbell     CHI 1 L 30   132 292 365 35 36 .949   1906 2 2 Frank Isbell 490 136 16 10 0 63 51 27 6 28 33 .278 .323 .351 .674 71   19.4 3.3 22.7 .147 .025 .172 24.31 1906 2 2 Frank Isbell
         
1907 5 5 Frank Isbell     CHI 3 L 31   119 276 384 30 41 .957   1907 5 5 Frank Isbell 459 111 18 7 0 57 39 21 4 23 21 .242 .281 .312 .593 51   8.8 5.2 14.0 .074 .044 .118 13.00 1907 5 5 Frank Isbell
1907 11 George Rohe     CHI 3 R 31 3B,SS   39 81 111 19 16 .910   1907 11 George Rohe 133 28 3 1 1 12 14 10 1 5 4 .211 .271 .271 .542 12   1.5 1.1 2.6 .038 .028 .067 1.82 1907 11 George Rohe
         
1908 6 6 George Davis Vet     CHI 3 B 37 SS   95 191 314 21 25 .960   1908 6 6 George Davis 326 71 11 1 0 32 20 32 5 23 17 .218 .298 .258 .556 33   7.0 3.5 10.5 .074 .037 .111 9.13 1908 6 6 George Davis
1908 12 Jake Atz   R   CHI 3 R 28   46 82 137 15 12 .936   1908 12 Jake Atz 146 28 2 0 0 17 19 22 3 8 6 .192 .310 .205 .515 14   2.7 1.3 4.0 .059 .028 .087 3.09 1908 12 Jake Atz
         
1909 5 4 Jake Atz     CHI 4 R 29   118 202 311 25 40 .954   1909 5 4 Jake Atz 369 87 17 3 0 38 21 37 2 18 14 .236 .309 .298 .607 42   8.4 4.1 12.5 .071 .035 .106 10.12 1909 5 4 Jake Atz
1909 10 Billy Purtell   R   CHI 4 R 23 3B   32 72 90 5 13 .970   1909 10 Billy Purtell 112 29 3 1 0 11 12 6 1 9 4 .259 .303 .304 .607 12   2.2 1.2 3.4 .069 .038 .106 2.75 1909 10 Billy Purtell
         
1910 6 5 Rollie Zeider   R   CHI 6 R 26 SS   87 205 242 33 31 .931   1910 6 5 Rollie Zeider 319 69 6 1 0 36 20 40 1 13 31 .216 .306 .241 .547 36   6.4 3.0 9.4 .074 .034 .108 7.31 1910 6 5 Rollie Zeider
1910 10 Amby McConnell     CHI 6 L 27   32 61 78 7 10 .952   1910 10 Amby McConnell 120 33 2 3 0 13 5 7 1 3 4 .275 .320 .342 .662 17   3.2 1.0 4.2 .100 .031 .131 3.58 1910 10 Amby McConnell
1910 16 Charlie French     CHI 6 L 26   28 53 54 8 6 .930   1910 16 Charlie French 105 17 0 1 0 11 2 7 2 3 3 .162 .228 .181 .409 4   - 0.6 0.6 .000 .021 .021 0.21 1910 16 Charlie French
         
1911 5 3 Amby McConnell     CHI 4 L 28   102 189 280 13 31 .973   1911 5 3 Amby McConnell 396 111 11 5 1 45 34 23 7 14 7 .280 .331 .341 .672 53   7.2 3.8 11.0 .071 .037 .108 9.27 1911 5 3 Amby McConnell
1911 12 Lee Tannehill     CHI 4 R 30 SS   27 67 96 7 12 .959   1911 12 Lee Tannehill 99 25 3 1 0 11 9 6 0 4 0 .253 .295 .303 .598 11   1.0 1.5 2.5 .037 .056 .093 1.96 1911 12 Lee Tannehill
         
1912 2 2 Morrie Rath   R   CHI 4 L 25   157 353 463 31 46 .963   1912 2 2 Morrie Rath 591 161 10 2 1 104 19 95 7 16 30 .272 .380 .301 .681 89   16.2 9.5 25.7 .103 .061 .164 26.93 1912 2 2 Morrie Rath
         
1913 9 7 Morrie Rath     CHI 5 L 26   86 160 251 16 32 .963   1913 9 7 Morrie Rath 295 59 2 0 0 37 12 46 22 1 14 22 .200 .310 .207 .517 24   1.8 3.9 5.7 .021 .045 .066 3.75 1913 9 7 Morrie Rath
1913 7 Joe Berger   R   CHI 5 R 26   69 111 214 14 18 .959   1913 7 Joe Berger 208 45 6 2 2 25 19 34 26 2 10 5 .216 .332 .293 .625 23   3.8 2.9 6.7 .055 .042 .097 5.33 1913 7 Joe Berger
         
1914 4 4 Lena Blackburne     CHI T6 R 27   143 239 433 26 28 .963   1914 4 4 Lena Blackburne 474 105 10 5 1 52 35 66 58 6 31 25 15 .222 .324 .270 .594 48   6.7 5.2 11.9 .047 .036 .083 8.83 1914 4 4 Lena Blackburne
         
1915 1 1 Eddie Collins BBW     CHI 3 L 28   155 344 487 22 54 .974   1915 1 1 Eddie Collins 521 173 22 10 4 118 77 119 27 5 35 46 30 .332 .460 .436 .896 128   32.0 7.8 39.8 .206 .050 .257 52.91 1915 1 1 Eddie Collins
         
1916 1 1 Eddie Collins BBW     CHI 2 L 29   155 346 415 19 75 .976   1916 1 1 Eddie Collins 545 168 14 17 0 87 52 86 36 3 39 40 21 .308 .405 .396 .801 97   23.7 6.9 30.6 .153 .045 .197 38.26 1916 1 1 Eddie Collins
         
Pos St All- Other 2nd Base Fielding Statistics Pos St Batting Statistics as Second Baseman Win Shares Pos St
Year Rank Rank Name HOF MVP Star Rookie GG SS Team Stdg Bats Age Pos Games PO Assts Err DP F Pct. Year Rank Rank Name At Bats Hits 2B 3B HR Runs RBI BB IBB SO HP SH SF SB CS GDP BA OBA SA OPS RC B WS F WS T WS BWS/G FWS/G TWS/G Adj WSQ Year Rank Rank Name
1917 1 1 Eddie Collins BBW     CHI 1 L 30   156 353 388 24 68 .969   1917 1 1 Eddie Collins 564 163 18 12 0 91 67 89 16 3 33 53 .289 .389 .363 .752 99   25.7 5.8 31.5 .165 .037 .202 42.07 1917 1 1 Eddie Collins
         
1918 1 1 Eddie Collins BBW     CHI 6 L 31   96 231 285 14 53 .974   1918 1 1 Eddie Collins 330 91 8 2 2 51 30 73 13 0 22 22 .276 .407 .330 .737 53   12.2 3.4 15.6 .127 .035 .163 18.80 1918 1 1 Eddie Collins
         
1919 1 1 Eddie Collins BBW     CHI 1 L 32   140 347 401 20 66 .974   1919 1 1 Eddie Collins 518 165 19 7 4 87 80 68 27 2 40 33 .319 .400 .405 .805 91   20.6 6.0 26.6 .147 .043 .190 33.91 1919 1 1 Eddie Collins
         
1920 1 1 Eddie Collins BBW     CHI 2 L 33   153 449 471 23 76 .976   1920 1 1 Eddie Collins 558 208 35 12 3 108 70 64 18 2 31 19 7 .373 .439 .495 .934 121   27.6 8.3 35.9 .180 .054 .235 47.59 1920 1 1 Eddie Collins
         
1921 1 1 Eddie Collins BBW     CHI 7 L 34   136 376 458 28 84 .968   1921 1 1 Eddie Collins 526 177 20 10 2 79 58 66 11 2 13 12 10 .337 .412 .424 .836 89   15.0 5.8 20.8 .110 .043 .153 23.62 1921 1 1 Eddie Collins
1921 13 Harvey McClellan   R   CHI 7 R 26   20 52 69 4 4 .968   1921 13 Harvey McClellan 71 13 1 0 0 7 5 5 7 0 1 1 1 .183 .237 .197 .434 3   - 0.8 0.8 .000 .040 .040 0.47 1921 13 Harvey McClellan
         
1922 1 1 Eddie Collins BBW 5     CHI 5 L 35   154 406 451 21 73 .976   1922 1 1 Eddie Collins 598 194 20 12 1 92 69 73 16 3 27 20 12 .324 .401 .403 .804 99   17.4 5.1 22.5 .113 .033 .146 25.79 1922 1 1 Eddie Collins
         
1923 1 1 Eddie Collins BBW 2     CHI 7 L 36   142 347 430 20 77 .975   1923 1 1 Eddie Collins 505 182 22 5 5 89 67 84 8 4 39 48 29 .360 .455 .453 .908 102   18.9 4.6 23.5 .133 .032 .165 27.53 1923 1 1 Eddie Collins
1923 17 John Happenny   R   CHI 7 R 22   20 22 49 4 10 .947   1923 17 John Happenny 61 14 4 0 0 5 7 2 9 1 4 0 0 .230 .266 .295 .561 4   - 0.4 0.4 .000 .020 .020 0.17 1923 17 John Happenny
         
1924 1 1 Eddie Collins BBW 2     CHI 8 L 37   150 396 446 20 83 .977   1924 1 1 Eddie Collins 556 194 27 7 6 108 86 89 16 3 28 42 17 .349 .441 .455 .896 118   21.6 3.2 24.8 .144 .021 .165 29.29 1924 1 1 Eddie Collins
         
1925 1 1 Eddie Collins BBW     CHI 5 L 38   116 290 346 20 74 .970   1925 1 1 Eddie Collins 425 147 26 3 3 80 80 87 8 4 17 19 6 .346 .461 .442 .903 96   18.4 3.4 21.8 .159 .029 .188 27.40 1925 1 1 Eddie Collins
1925 7 Bill Barrett     CHI 5 R 25 RF   41 83 115 15 23 .930   1925 7 Bill Barrett 132 48 12 2 2 24 22 13 15 0 4 3 3 .364 .421 .530 .951 28   5.1 0.9 6.0 .124 .022 .146 6.65 1925 7 Bill Barrett
         
1926 1 1 Eddie Collins BBW     CHI 5 L 39   101 228 307 15 53 .973   1926 1 1 Eddie Collins 375 129 32 4 1 66 62 62 8 3 15 13 8 .344 .441 .459 .900 74   14.7 2.7 17.4 .146 .027 .172 21.68 1926 1 1 Eddie Collins
1926 11 Ray Morehart   R   CHI 5 L 26   48 71 136 11 13 .950   1926 11 Ray Morehart 192 61 10 3 0 27 21 11 15 1 4 3 11 .318 .358 .401 .759 23   3.0 1.0 4.0 .063 .021 .083 3.47 1926 11 Ray Morehart
         
1927 6 5 Aaron Ward     CHI 5 R 30   138 275 437 27 66 .963   1927 6 5 Aaron Ward 441 119 24 8 5 71 53 60 53 2 22 6 5 .270 .360 .395 .755 62   8.1 3.4 11.5 .059 .025 .083 9.68 1927 6 5 Aaron Ward
         
1928 6 6 Bill Hunnefield     CHI 5 B 29   83 167 249 14 48 .967   1928 6 6 Bill Hunnefield 318 93 8 3 2 40 23 25 23 3 6 15 6 .292 .350 .355 .705 43   6.3 2.3 8.6 .076 .028 .104 7.83 1928 6 6 Bill Hunnefield
1928 14 Buck Redfern   R   CHI 5 R 26 SS   45 83 141 11 20 .953   1928 14 Buck Redfern 149 35 3 2 0 13 20 7 11 0 7 5 1 .235 .269 .282 .551 11   - 1.3 1.3 .000 .029 .029 0.62 1928 14 Buck Redfern
1928 10 Bill Barrett     CHI 5 R 28 RF   25 50 55 4 7 .963   1928 10 Bill Barrett 95 26 4 1 1 14 10 6 12 0 1 3 1 .274 .317 .368 .685 12   1.7 0.8 2.5 .068 .032 .100 2.23 1928 10 Bill Barrett
1928 17 Karl Swanson   R   CHI 5 L 24   21 33 66 6 9 .943   1928 17 Karl Swanson 64 9 1 0 0 2 6 4 7 0 6 3 0 .141 .191 .156 .347 1   - 0.5 0.5 .000 .024 .024 0.22 1928 17 Karl Swanson
         
1929 8 8 John Kerr   R   CHI 7 R 30   122 307 459 23 84 .971   1929 8 8 John Kerr 419 108 20 4 1 50 39 31 24 1 26 9 7 .258 .310 .332 .642 43   2.4 4.4 6.8 .020 .036 .056 4.38 1929 8 8 John Kerr
1929 13 Bill Hunnefield     CHI 7 B 30   26 65 90 5 18 .969   1929 13 Bill Hunnefield 103 19 4 0 0 11 7 6 2 0 1 4 2 .184 .229 .223 .452 4   - 0.8 0.8 .000 .031 .031 0.39 1929 13 Bill Hunnefield
         
1930 10 8 Bill Cissell     CHI 7 R 26 3B   106 251 336 32 60 .948   1930 10 8 Bill Cissell 426 115 21 7 2 62 36 21 24 2 9 12 7 .270 .307 .366 .673 48   3.6 2.5 6.1 .034 .024 .058 4.03 1930 10 8 Bill Cissell
1930 11 John Kerr     CHI 7 R 31   51 130 166 6 33 .980   1930 11 John Kerr 194 56 8 4 2 27 20 15 17 3 4 3 1 .289 .349 .402 .751 28   3.6 1.0 4.6 .071 .020 .090 3.81 1930 11 John Kerr
         
1931 7 7 John Kerr     CHI 8 R 32   117 297 366 22 78 .968   1931 7 7 John Kerr 416 111 16 2 2 48 47 33 21 2 9 8 3 .267 .324 .329 .653 51   6.1 2.3 8.4 .052 .020 .072 6.52 1931 7 7 John Kerr
1931 16 Bill Cissell     CHI 8 R 27 SS   23 57 69 5 11 .962   1931 16 Bill Cissell 88 19 3 1 0 9 10 3 6 1 1 4 1 .216 .250 .273 .523 7   - 0.5 0.5 .000 .022 .022 0.21 1931 16 Bill Cissell
1931 11 Lew Fonseca     CHI 8 R 32 1B,LF   21 46 49 2 8 .979   1931 11 Lew Fonseca 82 25 5 1 0 11 13 6 4 1 1 1 1 .305 .360 .390 .750 12   2.0 0.4 2.4 .095 .019 .114 2.35 1931 11 Lew Fonseca
         
Pos St All- Other 2nd Base Fielding Statistics Pos St Batting Statistics as Second Baseman Win Shares Pos St
Year Rank Rank Name HOF MVP Star Rookie GG SS Team Stdg Bats Age Pos Games PO Assts Err DP F Pct. Year Rank Rank Name At Bats Hits 2B 3B HR Runs RBI BB IBB SO HP SH SF SB CS GDP BA OBA SA OPS RC B WS F WS T WS BWS/G FWS/G TWS/G Adj WSQ Year Rank Rank Name
1932 7 7 Jackie Hayes     CHI 7 R 25   97 241 346 20 78 .967   1932 7 7 Jackie Hayes 394 101 17 4 2 44 45 25 23 1 4 6 3 .256 .302 .335 .637 41   3.3 2.7 6.0 .034 .028 .062 4.19 1932 7 7 Jackie Hayes
1932 10 Luke Appling BBW     CHI 7 R 25 SS   30 62 110 6 16 .966   1932 10 Luke Appling 114 31 5 2 1 15 15 9 8 0 1 2 2 .272 .325 .377 .702 14   1.7 0.8 2.5 .057 .027 .083 2.03 1932 10 Luke Appling
1932 13 Carey Selph   R   CHI 7 R 30 3B   26 45 95 8 14 .946   1932 13 Carey Selph 106 30 5 2 0 13 14 8 2 1 1 2 2 .283 .339 .368 .707 14   1.7 0.4 2.1 .065 .015 .081 1.68 1932 13 Carey Selph
         
1933 5 5 Jackie Hayes   CHI 6 R 26   138 344 497 16 89 .981   1933 5 5 Jackie Hayes 535 138 23 5 2 65 47 55 36 3 10 2 3 .258 .331 .331 .662 62   6.5 6.0 12.5 .047 .043 .091 10.12 1933 5 5 Jackie Hayes
       
1934 12 8 Jackie Hayes   CHI 8 R 27   61 147 188 7 35 .980   1934 12 8 Jackie Hayes 226 58 9 1 1 19 31 23 20 0 6 3 2 .257 .325 .319 .644 26   1.7 0.2 1.9 .028 .003 .031 0.89 1934 12 8 Jackie Hayes
1934 13 Bob Boken   CHI 8 R 26 SS   57 121 165 22 28 .929   1934 13 Bob Boken 214 51 6 1 2 22 29 11 23 1 4 1 1 .238 .279 .304 .583 19   0.2 0.6 0.8 .004 .011 .014 0.25 1934 13 Bob Boken
1934 11 Jimmy Dykes a   CHI 8 R 37 1B,3B   27 65 81 8 13 .948   1934 11 Jimmy Dykes 96 26 4 1 1 11 17 14 6 1 3 0 0 .271 .369 .365 .734 14   1.7 0.8 2.5 .063 .030 .093 2.03 1934 11 Jimmy Dykes
       
1935 8 7 Jackie Hayes   CHI 5 R 28   85 202 275 17 48 .966   1935 8 7 Jackie Hayes 329 88 14 0 4 45 45 29 15 0 16 3 1 .267 .327 .347 .674 39   3.0 2.4 5.4 .035 .028 .064 3.66 1935 8 7 Jackie Hayes
1935 5 Tony Piet   CHI 5 R 28   59 129 216 9 32 .975   1935 5 Tony Piet 227 68 13 4 2 36 21 26 21 2 6 2 1 .300 .376 .419 .795 36   4.9 1.9 6.8 .083 .032 .115 6.21 1935 5 Tony Piet
       
1936 3 3 Jackie Hayes   CHI 3 R 29   89 216 334 12 70 .979   1936 3 3 Jackie Hayes 357 111 29 3 4 45 72 30 21 1 7 3 2 .311 .366 .443 .809 62   8.1 3.7 11.8 .091 .042 .133 12.07 1936 3 3 Jackie Hayes
1936 5 Tony Piet   CHI 3 R 29 3B   68 135 261 14 47 .966   1936 5 Tony Piet 239 65 10 1 5 47 29 45 33 6 3 10 3 .272 .400 .385 .785 45   5.7 2.4 8.1 .084 .035 .119 7.85 1936 5 Tony Piet
       
1937 5 5 Jackie Hayes   CHI 3 R 30   143 353 490 14 115 .984   1937 5 5 Jackie Hayes 573 131 27 4 2 63 79 41 37 2 15 1 6 .229 .282 .300 .582 48   - 8.5 8.5 .000 .059 .059 6.13 1937 5 5 Jackie Hayes
       
1938 6 6 Jackie Hayes   CHI 6 R 31   61 146 183 8 51 .976   1938 6 6 Jackie Hayes 238 78 21 2 1 40 20 24 6 0 7 3 2 .328 .389 .445 .834 41   5.7 1.8 7.5 .093 .030 .123 7.33 1938 6 6 Jackie Hayes
1938 16 Boze Berger   CHI 6 R 28 SS   42 86 117 15 23 .931   1938 16 Boze Berger 167 36 5 1 1 21 13 15 28 0 3 1 0 .216 .280 .275 .555 14   - 1.4 1.4 .000 .033 .033 0.71 1938 16 Boze Berger
1938 13 George Meyer R   CHI 6 R 28   24 61 86 5 12 .967   1938 13 George Meyer 81 24 2 2 0 10 9 11 17 1 2 3 1 .296 .387 .370 .757 13   1.3 0.8 2.1 .054 .033 .088 1.73 1938 13 George Meyer
1938 10 Jimmy Dykes   CHI 6 R 41   23 75 68 9 13 .941   1938 10 Jimmy Dykes 85 26 4 2 2 9 12 10 8 0 0 0 0 .306 .379 .471 .850 15   1.9 0.7 2.6 .083 .030 .113 2.43 1938 10 Jimmy Dykes
       
1939 6 5 Ollie Bejma   CHI 4 R 31   81 170 199 7 36 .981   1939 6 5 Ollie Bejma 300 75 9 3 8 51 43 35 26 1 10 1 3 5 .250 .330 .380 .710 40   4.2 3.3 7.5 .052 .041 .093 6.58 1939 6 5 Ollie Bejma
1939 10 Jackie Hayes   CHI 4 R 32   69 172 201 10 51 .974   1939 10 Jackie Hayes 269 67 12 3 0 34 23 27 10 1 8 0 3 5 .249 .320 .316 .636 29   1.7 3.4 5.1 .025 .049 .074 4.00 1939 10 Jackie Hayes
       
1940 9 8 Skeeter Webb   CHI T4 R 30   74 143 229 12 44 .969   1940 9 8 Skeeter Webb 301 71 10 2 1 30 26 27 30 0 5 3 5 4 .236 .299 .292 .591 27   0.8 2.3 3.1 .011 .031 .042 1.82 1940 9 8 Skeeter Webb
1940 10 Eric McNair   CHI T4 R 31   65 128 170 13 27 .958   1940 10 Eric McNair 247 56 13 1 7 26 31 12 26 1 5 1 7 8 .227 .265 .372 .637 22   - 1.7 1.7 .000 .026 .026 0.79 1940 10 Eric McNair
       
1941 4 4 Bill Knickerbocker   CHI 3 R 29   88 204 221 13 58 .970   1941 4 4 Bill Knickerbocker 343 84 23 2 7 51 29 41 27 2 10 6 5 4 .245 .329 .385 .714 48   7.6 2.8 10.4 .086 .032 .118 11.21 1941 4 4 Bill Knickerbocker
1941 9 Don Kolloway R   CHI 3 R 22   62 118 181 14 23 .955   1941 9 Don Kolloway 263 71 8 3 3 31 23 6 11 2 3 10 4 8 .270 .292 .357 .649 27   3.0 1.8 4.8 .048 .029 .077 4.19 1941 9 Don Kolloway
       
1942 4 4 Don Kolloway   CHI 6 R 23 1B   116 308 345 23 80 .966   1942 4 4 Don Kolloway 468 128 31 3 2 56 47 23 30 2 8 12 11 10 .274 .310 .365 .675 54   7.6 4.3 11.9 .066 .037 .103 10.64 1942 4 4 Don Kolloway
1942 12 Skeeter Webb   CHI 6 R 32   29 62 87 6 14 .961   1942 12 Skeeter Webb 94 16 2 1 0 5 4 4 13 0 3 1 2 1 .170 .204 .213 .417 2   - 1.0 1.0 .000 .034 .034 0.52 1942 12 Skeeter Webb
       
1943 8 7 Don Kolloway   CHI 4 R 24   85 246 240 16 71 .968   1943 8 7 Don Kolloway 348 75 14 4 1 29 33 9 30 0 3 11 7 7 .216 .235 .287 .522 20   - 3.1 3.1 .000 .036 .036 1.69 1943 8 7 Don Kolloway
1943 10 Skeeter Webb   CHI 4 R 33   54 118 169 14 35 .953   1943 10 Skeeter Webb 213 50 5 2 0 15 22 6 19 0 4 5 4 4 .235 .256 .277 .533 13   0.1 1.8 1.9 .002 .033 .035 1.02 1943 10 Skeeter Webb
       
1944 9 8 Roy Schalk R   CHI 7 R 35   142 360 391 28 109 .964   1944 9 8 Roy Schalk 567 125 14 4 1 45 43 43 50 1 20 5 4 16 .220 .277 .265 .542 39   0.5 4.3 4.8 .004 .030 .034 2.31 1944 9 8 Roy Schalk
       
1945 7 7 Roy Schalk 19   CHI 6 R 36   133 380 389 18 90 .977   1945 7 7 Roy Schalk 513 127 23 1 1 50 65 32 41 1 24 3 6 13 .248 .293 .302 .595 45   5.1 4.3 9.4 .038 .032 .071 6.71 1945 7 7 Roy Schalk
       
Pos St All- Other 2nd Base Fielding Statistics Pos St Batting Statistics as Second Baseman Win Shares Pos St
Year Rank Rank Name HOF MVP Star Rookie GG SS Team Stdg Bats Age Pos Games PO Assts Err DP F Pct. Year Rank Rank Name At Bats Hits 2B 3B HR Runs RBI BB IBB SO HP SH SF SB CS GDP BA OBA SA OPS RC B WS F WS T WS BWS/G FWS/G TWS/G Adj WSQ Year Rank Rank Name
1946 4 4 Don Kolloway   CHI 5 R 27 3B   90 235 281 15 74 .972   1946 4 4 Don Kolloway 359 100 17 3 2 33 39 7 22 0 7 10 4 4 .279 .292 .359 .651 38   5.8 3.4 9.2 .064 .038 .102 9.00 1946 4 4 Don Kolloway
1946 6 Cass Michaels   CHI 5 R 20   66 185 195 17 51 .957   1946 6 Cass Michaels 226 58 6 0 1 29 17 23 28 3 5 7 2 4 .257 .333 .296 .629 24   3.7 2.4 6.1 .056 .036 .092 5.67 1946 6 Cass Michaels
       
1947 5 5 Don Kolloway   CHI 6 R 28   99 274 306 23 76 .962   1947 5 5 Don Kolloway 407 113 21 3 2 41 29 14 29 0 6 9 3 18 .278 .302 .359 .661 38   4.6 4.2 8.8 .046 .042 .089 7.80 1947 5 5 Don Kolloway
1947 7 Cass Michaels   CHI 6 R 21 3B   60 160 175 6 52 .982   1947 7 Cass Michaels 201 55 8 2 2 18 19 22 16 2 4 6 3 8 .274 .351 .363 .714 24   4.1 2.7 6.8 .068 .045 .113 6.81 1947 7 Cass Michaels
       
1948 9 7 Don Kolloway   CHI 8 R 29   83 241 276 18 62 .966   1948 9 7 Don Kolloway 343 94 12 3 5 49 31 15 15 0 2 2 3 8 .274 .304 .370 .674 34   3.4 2.5 5.9 .041 .030 .071 4.37 1948 9 7 Don Kolloway
1948 11 Cass Michaels   CHI 8 R 22 SS   55 148 171 8 50 .976   1948 11 Cass Michaels 189 47 5 2 2 18 22 27 16 1 1 3 1 4 .249 .346 .328 .674 22   2.6 1.4 4.0 .047 .025 .073 3.00 1948 11 Cass Michaels
       
1949 2 2 Cass Michaels A   CHI 6 R 23   154 392 484 22 135 .976   1949 2 2 Cass Michaels 561 173 27 9 6 73 83 101 50 3 7 5 7 20 .308 .417 .421 .838 99   16.6 5.8 22.4 .108 .038 .145 24.19 1949 2 2 Cass Michaels
       
1950 8 7 Nellie Fox Vet   CHI 6 L 22   121 340 344 18 100 .974   1950 8 7 Nellie Fox 457 113 12 7 0 45 30 35 17 2 10 4 3 6 .247 .304 .304 .608 42   1.9 3.5 5.4 .016 .029 .045 3.43 1950 8 7 Nellie Fox
1950 4 Cass Michaels   CHI 6 R 24   35 111 78 7 36 .964   1950 4 Cass Michaels 138 43 6 3 4 21 19 13 8 1 6 0 0 5 .312 .375 .486 .861 23   2.5 1.4 3.9 .071 .040 .111 3.88 1950 4 Cass Michaels
       
1951 2 2 Nellie Fox Vet 17 A   CHI 4 L 23   147 413 449 17 112 .981   1951 2 2 Nellie Fox 604 189 32 12 4 93 55 43 11 14 20 9 12 7 .313 .372 .425 .797 92   15.0 7.3 22.3 .102 .050 .152 24.63 1951 2 2 Nellie Fox
       
1952 2 2 Nellie Fox Vet 7 a   CHI 3 L 24   151 406 433 13 111 .985   1952 2 2 Nellie Fox 648 192 25 10 0 76 39 34 14 3 15 5 5 11 .296 .334 .366 .700 77   12.3 9.2 21.5 .081 .061 .142 23.58 1952 2 2 Nellie Fox
       
1953 2 2 Nellie Fox Vet a   CHI 3 L 25   154 451 426 15 101 .983   1953 2 2 Nellie Fox 624 178 31 8 3 92 72 49 18 7 12 4 5 15 .285 .344 .375 .719 86   13.2 7.5 20.7 .086 .049 .134 22.22 1953 2 2 Nellie Fox
       
1954 2 2 Nellie Fox Vet T9 a   CHI 3 L 26   155 400 392 9 103 .989   1954 2 2 Nellie Fox 631 201 24 8 2 111 47 51 1 12 5 15 4 16 9 13 .319 .372 .391 .763 93   17.4 8.1 25.5 .112 .052 .165 27.82 1954 2 2 Nellie Fox
       
1955 1 1 Nellie Fox Vet 7 A   CHI 3 L 27   154 399 483 24 110 .974   1955 1 1 Nellie Fox 636 198 28 7 6 100 59 38 1 15 17 14 4 7 9 8 .311 .364 .406 .770 95   16.6 8.7 25.3 .108 .056 .164 29.40 1955 1 1 Nellie Fox
       
1956 1 1 Nellie Fox Vet T14 A   CHI 3 L 28   154 478 396 12 124 .986   1956 1 1 Nellie Fox 649 192 20 10 4 109 52 44 1 14 10 13 5 8 4 19 .296 .347 .376 .723 85   11.3 7.8 19.1 .073 .051 .124 20.56 1956 1 1 Nellie Fox
       
1957 1 1 Nellie Fox Vet 4 A G   CHI 2 L 29   155 453 453 13 141 .986   1957 1 1 Nellie Fox 619 196 27 8 6 110 61 75 2 13 16 5 3 5 6 7 .317 .403 .415 .818 105   23.1 8.2 31.3 .149 .053 .202 40.45 1957 1 1 Nellie Fox
       
1958 1 1 Nellie Fox Vet 8 A   CHI 2 L 30   155 444 399 13 117 .985   1958 1 1 Nellie Fox 623 187 21 6 0 82 49 47 5 11 11 12 5 5 6 13 .300 .357 .353 .710 78   14.5 7.8 22.3 .094 .050 .144 24.87 1958 1 1 Nellie Fox
       
1959 1 1 Nellie Fox Vet 1 A,A G   CHI 1 L 31   156 364 453 10 93 .988   1959 1 1 Nellie Fox 624 191 34 6 2 84 70 71 8 13 7 9 5 5 6 6 .306 .380 .389 .769 98   21.7 8.0 29.7 .139 .051 .190 36.52 1959 1 1 Nellie Fox
       
1960 1 1 Nellie Fox Vet T18 a(2) G   CHI 3 L 32   149 412 447 13 126 .985   1960 1 1 Nellie Fox 604 175 24 10 2 85 59 50 2 12 10 14 5 2 4 11 .290 .351 .373 .724 82   13.9 7.0 20.9 .093 .047 .140 24.67 1960 1 1 Nellie Fox
       
1961 7 7 Nellie Fox Vet a(2)   CHI 4 L 33   159 413 407 15 97 .982   1961 7 7 Nellie Fox 604 151 11 5 2 67 51 59 3 12 9 15 7 2 3 17 .250 .323 .295 .618 60   5.6 5.7 11.3 .035 .036 .071 10.02 1961 7 7 Nellie Fox
       
1962 5 5 Nellie Fox Vet   CHI 5 L 34   154 376 428 8 93 .990   1962 5 5 Nellie Fox 618 166 27 7 2 78 54 37 0 12 7 13 5 1 2 13 .269 .315 .345 .660 67   8.7 7.5 16.2 .056 .049 .105 15.85 1962 5 5 Nellie Fox
       
1963 7 6 Nellie Fox Vet 26 A   CHI 2 L 35   134 305 342 8 71 .988   1963 7 6 Nellie Fox 533 138 19 0 2 52 42 24 1 17 7 10 2 0 2 9 .259 .299 .306 .605 48   5.4 6.9 12.3 .040 .051 .092 11.42 1963 7 6 Nellie Fox
1963 14 Al Weis R   CHI 2 B 25 SS   48 88 103 2 28 .990   1963 14 Al Weis 124 31 5 0 0 20 11 8 0 23 1 5 1 3 1 1 .250 .299 .290 .589 13   2.4 2.0 4.4 .050 .042 .092 4.08 1963 14 Al Weis
       
1964 11 8 Al Weis   CHI 2 B 26   116 199 255 16 64 .966   1964 11 8 Al Weis 298 73 4 4 2 30 19 21 0 38 3 13 2 18 5 4 .245 .299 .305 .604 32   4.4 3.4 7.8 .038 .029 .067 6.60 1964 11 8 Al Weis
1964 1 Don Buford R   CHI 2 B 27 3B   92 196 198 13 60 .968   1964 1 Don Buford 342 99 12 5 4 50 28 33 2 45 2 7 3 10 5 5 .289 .353 .389 .742 51   9.7 3.3 13.0 .105 .036 .141 15.95 1964 1 Don Buford
       
Pos St All- Other 2nd Base Fielding Statistics Pos St Batting Statistics as Second Baseman Win Shares Pos St
Year Rank Rank Name HOF MVP Star Rookie GG SS Team Stdg Bats Age Pos Games PO Assts Err DP F Pct. Year Rank Rank Name At Bats Hits 2B 3B HR Runs RBI BB IBB SO HP SH SF SB CS GDP BA OBA SA OPS RC B WS F WS T WS BWS/G FWS/G TWS/G Adj WSQ Year Rank Rank Name
1965 1 1 Don Buford T25   CHI 2 B 28 3B   139 326 357 13 93 .981   1965 1 1 Don Buford 505 141 18 5 9 79 35 59 3 71 4 6 5 12 6 6 .279 .356 .388 .744 75   19.2 5.9 25.1 .138 .042 .181 32.86 1965 1 1 Don Buford
1965 10 Al Weis   CHI 2 B 27   74 109 122 6 27 .975   1965 10 Al Weis 116 32 4 3 1 15 11 10 1 19 2 5 1 3 1 1 .276 .341 .388 .729 18   4.8 2.0 6.8 .065 .027 .092 6.35 1965 10 Al Weis
       
1966 19 10 Al Weis   CHI 4 B 28   96 130 173 4 44 .987   1966 19 10 Al Weis 142 22 4 1 0 7 8 11 1 36 1 7 0 1 4 2 .155 .221 .197 .418 5   - 2.7 2.7 .000 .028 .028 1.56 1966 19 10 Al Weis
1966 10 Wayne Causey   CHI 4 L 29   60 86 110 4 15 .980   1966 10 Wayne Causey 147 35 7 2 0 22 12 21 0 9 0 2 3 2 0 1 .238 .327 .313 .640 18   3.9 1.6 5.5 .065 .027 .092 5.75 1966 10 Wayne Causey
1966 13 Jerry Adair   CHI 4 R 29 SS   50 89 92 3 19 .984   1966 13 Jerry Adair 139 35 7 1 1 11 13 7 0 21 1 3 1 1 1 3 .252 .291 .338 .629 14   1.7 1.4 3.1 .034 .028 .062 2.64 1966 13 Jerry Adair
1966 14 Don Buford   CHI 4 B 29 3B   37 88 81 8 18 .955   1966 14 Don Buford 124 29 4 1 1 14 3 9 0 17 2 3 1 1 6 1 .234 .294 .306 .600 11   2.1 1.4 3.5 .057 .038 .095 3.71 1966 14 Don Buford
       
1967 9 9 Wayne Causey   CHI 4 L 30   96 153 199 8 36 .978   1967 9 9 Wayne Causey 257 56 8 3 1 19 23 28 1 25 1 5 3 2 3 2 .218 .294 .284 .578 24   4.3 3.0 7.3 .045 .031 .076 5.94 1967 9 9 Wayne Causey
1967 10 Don Buford   CHI 4 B 30 3B   51 102 99 8 30 .962   1967 10 Don Buford 140 34 4 2 0 13 6 21 1 12 1 1 2 3 2 0 .243 .341 .300 .641 17   3.6 1.4 5.0 .071 .027 .098 4.63 1967 10 Don Buford
1967 13 Jerry Adair 15   CHI 4 R 30   27 70 61 2 21 .985   1967 13 Jerry Adair 96 20 4 0 0 6 9 4 0 17 1 2 1 0 0 5 .208 .245 .250 .495 7   0.9 1.1 2.0 .033 .041 .074 1.60 1967 13 Jerry Adair
1967 23 Al Weis   CHI 4 B 29   32 25 46 1 2 .986   1967 23 Al Weis 45 11 2 0 0 2 3 1 0 7 1 0 0 1 1 1 .244 .277 .289 .566 3   - 0.5 0.5 .000 .016 .016 0.19 1967 23 Al Weis
       
1968 14 10 Sandy Alomar   CHI T8 B 24   99 188 221 18 48 .958   1968 14 10 Sandy Alomar 310 80 5 1 0 29 8 15 0 35 1 4 2 16 7 4 .258 .293 .281 .574 27   3.6 1.3 4.9 .036 .013 .049 3.25 1968 14 10 Sandy Alomar
1968 16 Tim Cullen   CHI T8 R 26 SS   71 104 150 9 34 .966   1968 16 Tim Cullen 152 31 7 0 2 16 13 15 5 21 1 5 0 0 0 3 .204 .280 .289 .569 13   2.4 1.0 3.4 .034 .014 .048 2.21 1968 16 Tim Cullen
1968 22 Wayne Causey   CHI T8 L 31   41 47 54 3 11 .971   1968 22 Wayne Causey 73 12 2 0 0 6 1 8 1 4 1 1 0 0 0 0 .164 .256 .192 .448 4   0.3 0.4 0.7 .007 .010 .017 0.26 1968 22 Wayne Causey
       
1969 10 9 Bobby Knoop   CHI 5W R 30   104 271 320 9 76 .985   1969 10 9 Bobby Knoop 344 79 14 1 6 34 41 35 3 67 2 3 3 2 0 11 .230 .302 .328 .630 34   2.3 4.9 7.2 .022 .047 .069 5.31 1969 10 9 Bobby Knoop
1969 24 Rich Morales R   CHI 5W R 25   38 68 95 4 18 .976   1969 24 Rich Morales 95 22 0 0 0 6 5 5 0 16 2 1 0 1 0 2 .232 .284 .232 .516 6   - 1.2 1.2 .000 .032 .032 0.60 1969 24 Rich Morales
1969 23 Ron Hansen   CHI 5W R 31 1B   26 44 44 3 12 .967   1969 23 Ron Hansen 62 16 0 0 1 4 10 2 0 7 0 1 1 1 0 2 .258 .277 .306 .583 5   0.5 0.6 1.1 .019 .023 .042 0.64 1969 23 Ron Hansen
1969 8 Sandy Alomar   CHI 5W B 25   22 50 47 2 15 .980   1969 8 Sandy Alomar 58 13 2 0 0 8 4 4 0 6 0 2 0 3 0 0 .224 .274 .259 .533 5   0.6 0.7 1.3 .027 .032 .059 0.89 1969 8 8 Sandy Alomar
       
1970 11 9 Bobby Knoop   CHI 6W R 31   126 276 403 11 102 .984   1970 11 9 Bobby Knoop 399 91 13 2 5 34 36 33 4 78 2 1 4 0 1 7 .228 .288 .308 .596 35   2.1 4.0 6.1 .017 .032 .048 4.21 1970 11 9 Bobby Knoop
1970 17 Syd O'Brien   CHI 6W R 25 3B   43 96 127 10 31 .957   1970 17 Syd O'Brien 150 44 8 0 2 16 11 8 0 16 1 0 0 0 1 2 .293 .333 .387 .720 19   1.4 0.8 2.2 .033 .019 .051 1.56 1970 17 Syd O'Brien
       
1971 9 9 Mike Andrews   CHI 3W R 27 1B   76 177 191 17 51 .956   1971 9 9 Mike Andrews 251 68 11 0 5 30 23 40 1 28 1 5 3 3 3 4 .271 .369 .375 .744 39   8.1 1.3 9.4 .107 .017 .124 9.79 1971 9 9 Mike Andrews
1971 13 Rich McKinney R   CHI 3W R 24 RF   67 148 159 10 34 .968   1971 13 Rich McKinney 251 65 5 2 6 24 33 21 0 24 1 4 3 0 0 11 .259 .315 .367 .682 29   4.4 1.4 5.8 .066 .021 .087 5.06 1971 13 Rich McKinney
       
1972 6 6 Mike Andrews   CHI 2W R 28   145 354 325 19 69 .973   1972 6 6 Mike Andrews 496 108 16 0 7 59 48 67 2 76 1 18 7 2 2 4 .218 .308 .292 .600 53   9.5 5.0 14.5 .066 .034 .100 14.18 1972 6 6 Mike Andrews
       
1973 8 8 Jorge Orta R   CHI 5W L 22   122 254 300 18 75 .969   1973 8 8 Jorge Orta 417 110 8 10 5 43 36 34 2 85 1 1 5 8 8 7 .264 .317 .367 .684 48   7.3 2.1 9.4 .060 .017 .077 7.80 1973 8 8 Jorge Orta
1973 21 Luis Alvarado   CHI 5W R 24   45 90 107 4 24 .980   1973 21 Luis Alvarado 139 31 5 0 0 11 14 2 0 8 1 1 0 4 1 2 .223 .239 .259 .498 9   - 0.8 0.8 .000 .018 .018 0.32 1973 21 Luis Alvarado
       
1974 3 3 Jorge Orta   CHI 4W L 23   123 297 313 18 93 .971   1974 3 3 Jorge Orta 482 157 28 2 10 71 65 35 1 80 3 6 4 9 5 8 .326 .372 .454 .826 82   18.0 4.0 22.0 .146 .033 .179 27.05 1974 3 3 Jorge Orta
1974 19 Ron Santo   CHI 4W R 34 3B,DH   39 97 99 6 40 .970   1974 19 Ron Santo 136 34 5 1 4 18 15 18 0 23 1 0 0 0 1 6 .250 .342 .390 .732 17   0.6 1.1 1.7 .015 .028 .044 1.03 1974 19 Ron Santo
       
1975 3 3 Jorge Orta a-inj   CHI 5W L 24   135 354 354 16 95 .978   1975 3 3 Jorge Orta 531 162 26 10 11 66 82 48 7 65 4 4 4 16 9 17 .305 .365 .454 .819 84   16.4 4.1 20.5 .121 .030 .152 22.80 1975 3 3 Jorge Orta
1975 18 Bill Stein   CHI 5W R 28 3B   28 71 79 4 16 .974   1975 18 Bill Stein 90 23 1 1 1 13 8 7 0 14 1 1 0 1 0 2 .256 .316 .322 .638 9   1.2 0.6 1.8 .043 .021 .064 1.30 1975 18 Bill Stein
       
1976 6 6 Jack Brohamer   CHI 6W L 26   117 263 334 10 74 .984   1976 6 6 Jack Brohamer 347 88 12 2 7 32 39 43 9 28 3 6 8 1 3 9 .254 .334 .360 .694 40   6.6 4.0 10.6 .056 .034 .091 9.76 1976 6 6 Jack Brohamer
1976 11 Bill Stein   CHI 6W R 29 3B   58 118 143 11 34 .960   1976 11 Bill Stein 187 56 7 1 3 19 21 8 3 22 2 6 0 2 1 4 .299 .335 .396 .731 26   3.8 1.4 5.2 .066 .024 .090 4.76 1976 11 Bill Stein
       
1977 5 5 Jorge Orta   CHI 3W L 26   139 287 335 19 64 .970   1977 5 5 Jorge Orta 559 158 27 8 10 70 82 46 3 48 2 2 7 3 4 12 .283 .336 .413 .749 77   12.9 1.6 14.5 .093 .012 .104 14.96 1977 5 5 Jorge Orta
       
Pos St All- Other 2nd Base Fielding Statistics Pos St Batting Statistics as Second Baseman Win Shares Pos St
Year Rank Rank Name HOF MVP Star Rookie GG SS Team Stdg Bats Age Pos Games PO Assts Err DP F Pct. Year Rank Rank Name At Bats Hits 2B 3B HR Runs RBI BB IBB SO HP SH SF SB CS GDP BA OBA SA OPS RC B WS F WS T WS BWS/G FWS/G TWS/G Adj WSQ Year Rank Rank Name
1978 5 5 Jorge Orta   CHI 5W L 27   114 275 290 9 62 .984   1978 5 5 Jorge Orta 417 114 19 2 13 45 52 42 3 38 4 4 7 1 2 9 .273 .340 .422 .762 61   12.5 2.6 15.1 .110 .023 .132 16.81 1978 5 5 Jorge Orta
1978 18 Greg Pryor R   CHI 5W R 28 C,3B,SS   35 54 90 5 16 .966   1978 18 Greg Pryor 109 28 7 0 2 13 11 4 0 9 0 3 1 1 1 2 .257 .281 .376 .657 12   1.5 0.9 2.4 .043 .026 .069 1.92 1978 18 Greg Pryor
       
1979 8 8 Alan Bannister   CHI 5W R 27 LF   65 150 160 12 32 .963   1979 8 8 Alan Bannister 239 84 10 5 2 39 36 27 1 14 0 3 2 11 3 1 .351 .414 .460 .874 51   7.6 1.3 8.9 .117 .020 .137 9.37 1979 8 8 Alan Bannister
1979 10 Jim Morrison R   CHI 5W R 26 3B   48 104 120 4 33 .982   1979 10 Jim Morrison 173 55 12 0 13 30 31 8 0 35 4 5 3 8 3 2 .318 .356 .613 .969 38   6.6 1.0 7.6 .138 .021 .158 8.60 1979 10 Jim Morrison
1979 15 Jorge Orta   CHI 5W L 28 DH   41 57 75 3 17 .978   1979 15 Jorge Orta 121 41 12 2 6 16 22 12 0 11 0 1 2 0 2 2 .339 .393 .620 1.013 29   4.6 0.4 5.0 .112 .010 .122 4.97 1979 15 Jorge Orta
1979 26 Greg Pryor   CHI 5W R 29 3B,SS   25 42 48 1 13 .989   1979 26 Greg Pryor 59 20 3 0 0 7 5 2 0 7 0 1 1 0 0 1 .339 .355 .390 .745 9   0.9 0.5 1.4 .036 .020 .056 0.94 1979 26 Greg Pryor
       
1980 4 4 Jim Morrison CHI 5W R 27   161 422 481 29 117 .969   1980 4 4 Jim Morrison 599 171 40 0 15 66 57 36 2 74 8 12 6 8 6 19 .285 .331 .427 .758 78   13.0 4.6 17.6 .081 .029 .109 17.13 1980 4 4 Jim Morrison
     
1981 2 2 Tony Bernazard CHI 3W B 24   104 228 320 7 66 .987   1981 2 2 Tony Bernazard 381 106 14 4 6 53 34 54 6 66 2 9 1 4 4 7 .278 .370 .383 .753 56   11.1 4.4 15.5 .107 .042 .149 17.33 1981 2 2 Tony Bernazard
     
1982 3 3 Tony Bernazard CHI 3W B 25   137 353 443 12 116 .985   1982 3 3 Tony Bernazard 540 138 25 9 11 90 56 67 0 88 2 16 5 11 0 9 .256 .337 .396 .733 78   13.8 6.2 20.0 .101 .045 .146 23.11 1982 3 3 Tony Bernazard
     
1983 9 11 Julio Cruz T24 CHI 1W B 28   97 213 298 9 71 .983   1983 9 11 Julio Cruz 333 83 9 4 1 45 40 28 0 44 2 4 5 21 6 9 .249 .307 .309 .616 34   4.3 4.2 8.5 .041 .043 .088 7.37 1983 9 11 Julio Cruz
1983 7 Tony Bernazard CHI 1W B 26   59 96 189 7 38 .976   1983 7 Tony Bernazard 233 61 16 2 2 30 26 17 0 45 0 4 5 1 1 5 .262 .306 .373 .679 28   4.0 2.2 6.2 .068 .037 .105 5.89 1983 7 Tony Bernazard
     
1984 12 11 Julio Cruz CHI T5W B 29   141 273 452 18 92 .976   1984 12 11 Julio Cruz 415 92 14 4 5 42 43 45 0 58 0 4 5 14 6 9 .222 .295 .311 .606 38   2.0 6.5 8.5 .014 .046 .060 6.33 1984 12 11 Julio Cruz
1984 19 Scott Fletcher CHI T5W R 25 SS   28 39 56 3 13 .969   1984 19 Scott Fletcher 56 14 1 0 0 6 5 7 1 6 0 1 1 2 0 0 .250 .328 .268 .596 6   0.6 1.2 1.8 .021 .043 .064 1.39 1984 19 Scott Fletcher
1984 18 Vance Law CHI T5W R 27 3B   22 29 42 2 6 .973   1984 18 Vance Law 55 17 3 1 2 6 10 5 0 5 0 0 0 0 0 2 .309 .367 .509 .876 10   1.2 0.5 1.7 .055 .023 .077 1.44 1984 18 Vance Law
     
1985 20 14 Julio Cruz CHI 3W B 30   87 158 220 7 59 .982   1985 20 14 Julio Cruz 228 43 2 3 0 22 14 31 0 40 2 1 1 6 4 6 .189 .290 .224 .514 16   - 3.6 3.6 .000 .041 .041 2.27 1985 20 14 Julio Cruz
1985 14 Bryan Little CHI 3W B 25   68 100 164 3 33 .989   1985 14 Bryan Little 181 46 8 1 2 33 27 26 0 21 3 3 3 0 1 4 .254 .352 .343 .695 24   3.7 2.5 6.2 .054 .037 .091 5.83 1985 14 Bryan Little
1985 25 Scott Fletcher CHI 3W R 26 3B,SS   37 38 55 0 11 1.000   1985 25 Scott Fletcher 58 7 2 1 0 6 6 6 0 3 0 4 0 0 1 3 .121 .203 .190 .393 3   0.3 1.0 1.3 .008 .027 .035 0.76 1985 25 Scott Fletcher
1985 21 Tim Hulett R CHI 3W R 25 3B   28 48 46 1 19 .989   1985 21 Tim Hulett 66 21 2 1 1 5 11 1 0 12 2 0 1 3 1 1 .318 .343 .424 .767 9   1.4 0.8 2.2 .050 .029 .079 1.92 1985 21 Tim Hulett
     
1986 16 13 Julio Cruz CHI 5W B 31   78 132 205 5 45 .985   1986 16 13 Julio Cruz 208 45 2 0 0 37 19 42 0 27 0 2 3 7 2 4 .216 .344 .226 .570 21   1.6 2.5 4.1 .021 .032 .053 2.88 1986 16 13 Julio Cruz
1986 17 Tim Hulett CHI 5W R 26 3B   66 109 187 4 44 .987   1986 17 Tim Hulett 203 51 9 3 2 17 14 12 0 33 0 3 1 0 0 5 .251 .292 .355 .647 22   1.7 1.8 3.5 .026 .027 .053 2.47 1986 17 Tim Hulett
1986 24 Jack Perconte CHI 5W L 31   24 46 54 1 12 .990   1986 24 Jack Perconte 73 16 1 0 0 5 4 10 1 10 0 1 0 2 0 2 .219 .313 .233 .546 6   0.4 0.7 1.1 .017 .029 .046 0.72 1986 24 Jack Perconte
     
1987 16 13 Donnie Hill CHI 5W B 26 3B   84 153 223 5 47 .987   1987 16 13 Donnie Hill 296 68 10 6 4 41 29 24 1 23 0 3 3 0 0 7 .230 .285 .345 .630 30   2.0 2.5 4.5 .024 .030 .054 3.39 1987 16 13 Donnie Hill
1987 12 Fred Manrique R CHI 5W R 25 SS   92 147 234 6 58 .984   1987 12 Fred Manrique 240 61 12 3 2 21 25 15 1 57 1 8 3 4 1 2 .254 .297 .354 .651 29   2.3 3.0 5.3 .025 .033 .058 4.14 1987 12 Fred Manrique
     
1988 13 12 Fred Manrique CHI 5W R 26 SS   129 228 308 8 77 .985   1988 13 12 Fred Manrique 311 75 9 6 5 36 37 16 1 47 3 16 2 5 5 7 .241 .283 .357 .640 35   4.2 3.3 7.5 .033 .026 .058 5.80 1988 13 12 Fred Manrique
1988 19 Donnie Hill CHI 5W B 27   59 106 132 6 36 .975   1988 19 Donnie Hill 168 37 4 1 1 11 15 16 1 19 0 1 3 3 1 3 .220 .283 .274 .557 14   0.8 1.4 2.2 .014 .024 .037 1.36 1988 19 Donnie Hill
     
1989 18 13 Steve Lyons CHI 7W L 29 1B,3B   70 142 185 6 46 .982   1989 18 13 Steve Lyons 230 58 10 0 1 26 25 17 1 35 1 3 3 4 4 2 .252 .303 .309 .612 23   3.5 1.5 5.0 .050 .021 .071 3.87 1989 18 13 Steve Lyons
1989 11 Scott Fletcher CHI 7W R 30 SS   53 108 161 0 38 1.000   1989 11 Scott Fletcher 203 55 8 1 1 27 19 25 0 17 0 8 3 1 1 4 .271 .346 .335 .681 28   7.0 0.9 7.9 .132 .017 .149 8.83 1989 11 Scott Fletcher
1989 13 Fred Manrique CHI 7W R 27 SS   57 94 127 9 30 .961   1989 13 Fred Manrique 176 51 13 0 2 20 29 6 0 29 2 4 1 0 4 6 .290 .319 .398 .717 21   4.2 1.1 5.3 .074 .019 .093 4.68 1989 13 Fred Manrique
     
1990 9 8 Scott Fletcher CHI 2W R 31   151 305 436 9 115 .988   1990 9 8 Scott Fletcher 509 123 18 3 4 54 56 45 3 63 3 11 5 1 3 10 .242 .304 .312 .616 52   6.8 6.2 13.0 .045 .041 .086 11.49 1990 9 8 Scott Fletcher
     
Pos St All- Other 2nd Base Fielding Statistics Pos St Batting Statistics as Second Baseman Win Shares Pos St
Year Rank Rank Name HOF MVP Star Rookie GG SS Team Stdg Bats Age Pos Games PO Assts Err DP F Pct. Year Rank Rank Name At Bats Hits 2B 3B HR Runs RBI BB IBB SO HP SH SF SB CS GDP BA OBA SA OPS RC B WS F WS T WS BWS/G FWS/G TWS/G Adj WSQ Year Rank Rank Name
1991 18 13 Scott Fletcher CHI 2W R 32   86 177 191 3 49 .992   1991 18 13 Scott Fletcher 241 49 9 1 1 14 26 17 0 25 3 6 3 0 2 3 .203 .261 .261 .522 18   0.6 2.7 3.3 .007 .031 .038 1.80 1991 18 13 Scott Fletcher
1991 19 Joey Cora CHI 2W B 26   80 103 184 9 33 .970   1991 19 Joey Cora 211 51 2 3 0 30 18 18 0 20 5 8 3 7 4 1 .242 .312 .280 .592 19   0.9 1.9 2.8 .011 .024 .035 1.46 1991 19 Joey Cora
1991 16 Craig Grebeck R CHI 2W R 26 3B,SS   36 62 97 1 19 .994   1991 16 Craig Grebeck 94 24 6 1 0 11 5 16 0 15 1 2 0 0 2 2 .255 .369 .340 .709 13   2.6 0.8 3.4 .072 .022 .094 2.93 1991 16 Craig Grebeck
     
1992 21 14 Steve Sax CHI 3W R 32   141 305 390 20 75 .972   1992 21 14 Steve Sax 562 133 26 4 4 73 47 43 4 42 2 12 6 30 12 17 .237 .290 .319 .609 47   3.0 1.6 4.6 .021 .011 .033 2.37 1992 21 14 Steve Sax
1992 22 Joey Cora CHI 3W B 27   28 51 71 2 19 .984   1992 22 Joey Cora 86 21 5 1 0 17 7 14 0 9 3 1 3 7 2 1 .244 .358 .326 .684 12   2.2 0.4 2.6 .079 .014 .093 2.26 1992 22 Joey Cora
     
1993 5 5 Joey Cora CHI 1W B 28   151 295 410 19 85 .974   1993 5 5 Joey Cora 571 153 15 13 2 94 51 66 0 61 9 19 4 19 8 14 .268 .351 .350 .701 77   11.4 4.9 16.3 .075 .032 .108 15.24 1993 5 5 Joey Cora
     
1994 7 7 Joey Cora CHI 1C B 29   84 162 195 8 48 .978   1994 7 7 Joey Cora 302 83 13 4 2 52 30 35 0 30 2 11 5 8 4 8 .275 .349 .364 .713 42   5.2 3.3 8.5 .062 .039 .101 8.37 1994 7 7 Joey Cora
1994 19 Norberto Martin R CHI 1C R 27   28 53 59 2 10 .982   1994 19 Norberto Martin 100 25 6 0 1 13 12 7 0 12 0 3 2 2 2 2 .250 .294 .340 .634 11   1.5 1.0 2.5 .054 .036 .089 2.31 1994 19 Norberto Martin
     
1995 11 10 Ray Durham R-T6 CHI 3C B 23   122 245 299 15 67 .973   1995 11 10 Ray Durham 463 119 26 6 7 67 51 31 2 81 5 5 4 17 5 8 .257 .308 .384 .692 56   6.1 2.0 8.1 .050 .016 .066 6.40 1995 11 10 Ray Durham
     
1996 3 3 Ray Durham CHI 2C B 24   150 236 423 11 87 .984   1996 3 3 Ray Durham 555 153 33 5 10 78 65 57 4 94 7 7 6 30 3 6 .276 .347 .407 .754 86   11.7 4.9 16.6 .078 .033 .111 15.85 1996 3 3 Ray Durham
     
1997 7 7 Ray Durham CHI 2C B 25   153 270 395 18 77 .974   1997 7 7 Ray Durham 631 172 27 5 11 105 53 58 0 96 6 2 8 33 16 14 .273 .336 .384 .720 75   9.6 3.6 13.2 .063 .024 .086 11.64 1997 7 7 Ray Durham
     
1998 2 2 Ray Durham a CHI 2C B 26   158 282 438 18 128 .976   1998 2 2 Ray Durham 635 181 35 8 19 126 67 72 3 105 6 6 3 34 9 5 .285 .362 .455 .817 103   21.0 3.6 24.6 .133 .023 .156 28.34 1998 2 2 Ray Durham
     
1999 4 3 Ray Durham CHI 2C B 27   148 305 412 19 100 .974   1999 4 3 Ray Durham 593 176 30 8 13 108 58 73 1 103 3 3 2 33 11 9 .297 .376 .440 .816 98   14.8 4.9 19.7 .100 .033 .133 20.59 1999 4 3 Ray Durham
1999 21 Liu Rodriguez R CHI 2C B 22   22 25 41 1 6 .985   1999 21 Liu Rodriguez 58 15 1 2 0 4 8 6 0 7 2 3 0 0 0 3 .259 .348 .345 .693 7   1.3 0.5 1.8 .059 .023 .082 1.47 1999 21 Liu Rodriguez
     
2000 2 2 Ray Durham a CHI 1C B 28   151 298 420 15 125 .980   2000 2 2 Ray Durham 612 172 35 9 17 121 75 75 0 105 7 5 8 25 13 13 .281 .362 .451 .813 98   13.5 5.9 19.4 .089 .039 .128 22.18 2000 2 2 Ray Durham
     
2001 3 3 Ray Durham CHI 3C B 29   150 280 447 10 88 .986   2001 3 3 Ray Durham 604 162 42 10 19 104 64 64 3 110 4 6 6 23 9 10 .268 .339 .465 .804 95   14.4 7.1 21.5 .096 .047 .143 22.73 2001 3 3 Ray Durham
2001 T21 Tony Graffanino CHI 3C R 29 3B   20 32 51 1 13 .988   2001 T21 Tony Graffanino 57 19 4 0 1 10 5 7 0 13 0 1 1 2 0 2 .333 .400 .456 .856 11   1.1 0.5 1.6 .055 .025 .080 1.26 2001 T21 Tony Graffanino
     
2002 3 6 Ray Durham CHI 2C B 30   92 187 261 15 61 .968   2002 3 6 Ray Durham 341 102 20 2 9 71 46 49 0 59 5 8 4 20 5 13 .299 .391 .449 .840 62   10.9 3.4 14.3 .118 .037 .155 16.87 2002 3 6 Ray Durham
2002 26 Willie Harris CHI 2C L 24   38 87 104 3 21 .985   2002 26 Willie Harris 141 34 3 0 2 14 10 9 0 19 0 3 2 7 0 3 .241 .283 .305 .588 13   0.6 1.4 2.0 .016 .037 .053 1.38 2002 26 Willie Harris
2002 21 Tony Graffanino CHI 2C R 30 3B   25 33 58 5 17 .948   2002 21 Tony Graffanino 74 18 4 1 3 12 13 8 0 11 2 1 1 1 0 0 .243 .329 .446 .775 12   1.8 0.6 2.4 .072 .024 .096 2.23 2002 21 Tony Graffanino
     
2003 12 11 D'Angelo Jimenez CHI 2C B 25 NL-2B   68 119 175 7 41 .977   2003 12 11 D'Angelo Jimenez 263 68 11 5 7 35 25 30 1 45 0 4 1 4 3 3 .259 .333 .418 .751 37   3.9 2.4 6.3 .057 .035 .093 5.67 2003 12 11 D'Angelo Jimenez
2003 16 Roberto Alomar BBW CHI 2C B 35 NL-2B   67 120 171 3 37 .990   2003 16 Roberto Alomar 251 63 11 1 3 41 17 30 1 36 1 8 4 6 2 9 .251 .329 .339 .668 29   2.3 2.5 4.8 .034 .037 .072 3.80 2003 16 Roberto Alomar
2003 14 Tony Graffanino CHI 2C R 31 3B,SS   29 53 77 3 22 .977   2003 14 Tony Graffanino 89 26 7 2 2 22 6 12 0 13 0 1 0 4 0 0 .292 .376 .483 .859 19   2.7 1.3 4.0 .093 .045 .138 4.39 2003 14 Tony Graffanino
     
2004 13 12 Willie Harris CHI 2C L 26 CF   92 163 223 4 46 .990   2004 13 12 Willie Harris 293 80 14 2 1 44 21 33 0 54 1 6 3 15 6 3 .273 .345 .345 .690 40   4.2 3.6 7.8 .046 .039 .085 7.23 2004 13 12 Willie Harris
2004 7 Juan Uribe CHI 2C R 24 3B,SS   77 154 208 6 49 .984   2004 7 Juan Uribe 292 81 17 2 15 53 42 20 0 56 1 6 2 4 7 5 .277 .324 .503 .827 47   7.2 3.4 10.6 .094 .044 .138 12.52 2004 7 Juan Uribe
     
2005 4 4 Tadahito Iguchi R-4 CHI 1C R 30   133 234 375 14 84 .978   2005 4 4 Tadahito Iguchi 507 139 24 6 14 72 65 46 0 114 6 11 6 15 5 16 .274 .338 .428 .766 75   10.9 7.4 18.3 .082 .056 .138 19.64 2005 4 4 Tadahito Iguchi
2005 19 Willie Harris CHI 1C L 27   32 58 78 2 20 .986   2005 19 Willie Harris 98 29 2 1 1 12 7 9 0 18 1 2 0 5 1 0 .296 .361 .367 .728 12   1.5 1.7 3.2 .047 .053 .100 2.92 2005 19 Willie Harris
     
Pos St All- Other 2nd Base Fielding Statistics Pos St Batting Statistics as Second Baseman Win Shares Pos St
Year Rank Rank Name HOF MVP Star Rookie GG SS Team Stdg Bats Age Pos Games PO Assts Err DP F Pct. Year Rank Rank Name At Bats Hits 2B 3B HR Runs RBI BB IBB SO HP SH SF SB CS GDP BA OBA SA OPS RC B WS F WS T WS BWS/G FWS/G TWS/G Adj WSQ Year Rank Rank Name
2006 1 1 Tadahito Iguchi CHI 3C R 31   136 270 371 8 75 .988   2006 1 1 Tadahito Iguchi 553 155 23 0 18 96 67 58 0 109 3 8 2 11 5 7 .280 .351 .420 .771 82   12.0 6.5 18.5 .088 .048 .136 20.85 2006 1 1 Tadahito Iguchi
2006 22 Alex Cintron CHI 3C B 27 SS   26 43 59 1 9 .990   2006 22 Alex Cintron 96 31 2 1 2 18 18 4 0 13 0 1 1 4 1 3 .323 .347 .427 .774 14   1.2 1.0 2.2 .046 .038 .085 1.95 2006 22 Alex Cintron
     
2007 11 10 Tadahito Iguchi CHI 4C R 32   90 188 247 6 66 .986   2007 11 10 Tadahito Iguchi 327 82 17 4 6 45 31 44 1 65 2 1 3 8 1 5 .251 .340 .382 .722 46   6.3 3.3 9.6 .070 .037 .107 9.01 2007 11 10 Tadahito Iguchi
2007 19 Danny Richar R CHI 4C L 24   56 103 139 3 37 .988   2007 19 Danny Richar 187 43 9 3 6 30 15 16 0 33 0 2 1 1 3 5 .230 .289 .406 .695 20   1.7 1.7 3.4 .030 .030 .061 2.41 2007 19 Danny Richar
     
2008 5 5 Alexei Ramirez R-2 CHI 1C R 26   121 237 327 11 71 .981   2008 5 5 Alexei Ramirez 430 126 18 2 21 61 73 17 3 55 3 4 4 11 8 11 .293 .322 .491 .813 63   11.6 5.3 16.9 .096 .044 .140 17.77 2008 5 5 Alexei Ramirez
2008 19 Juan Uribe CHI 1C R 28 3B   52 104 124 1 34 .996   2008 19 Juan Uribe 138 27 6 0 3 14 17 9 0 27 1 3 0 0 0 2 .196 .250 .304 .554 11   1.7 2.5 4.2 .033 .048 .081 3.35 2008 19 Juan Uribe
     
2009 13 12 Chris Getz R CHI 3C L 25   106 196 298 7 75 .986   2009 13 12 Chris Getz 373 98 18 4 2 49 31 30 1 54 6 1 3 24 2 4 .263 .325 .349 .674 48   5.3 4.9 10.2 .050 .046 .096 8.83 2009 13 12 Chris Getz
2009 19 Jayson Nix R CHI 3C R 26   52 81 137 6 34 .973   2009 19 Jayson Nix 153 41 5 0 8 21 22 12 0 33 3 1 2 4 2 3 .268 .329 .458 .787 23   2.0 2.1 4.1 .038 .040 .079 3.22 2009 19 Jayson Nix
2009 25 Brent Lillibridge R CHI 3C R 25   23 29 43 2 6 .973   2009 25 Brent Lillibridge 49 6 2 0 0 5 2 11 0 14 0 1 0 3 1 1 .122 .283 .163 .446 3   - 0.6 0.6 .000 .026 .026 0.27 2009 25 Brent Lillibridge
     
2010 7 7 Gordon Beckham CHI 2C R 23   126 245 375 12 100 .981   2010 7 7 Gordon Beckham 440 112 25 2 9 57 49 37 0 90 7 6 4 4 6 9 .255 .320 .382 .702 53   6.3 5.3 11.6 .050 .042 .092 10.29 2010 7 7 Gordon Beckham
2010 34 Brent Lillibridge CHI 2C R 26   25 34 56 4 12 .957   2010 34 Brent Lillibridge 65 10 1 1 1 4 7 3 0 24 0 0 0 1 1 2 .154 .191 .246 .437 3   0.5 0.7 1.2 .020 .028 .048 0.77 2010 34 Brent Lillibridge
Copyright 2009-11 by Andre Lower
Sources:
All-Time Major League Handbook
Win Shares Digital Update
baseball-reference.com
ESPN Baseball Encyclopedia